Time;durP1;ratioP1;P1;durP2;ratioP2;P2;SDS_P1;SDS_P2;PMS_P1;PMS_P2;Temp;Humidity;BMP_temperature;BMP_pressure;BME280_temperature;BME280_humidity;BME280_pressure;Samples;Min_cycle;Max_cycle;Signal;HPM_P1;HPM_P2
2022/03/29 00:01:20;;;;;;;21.73;13.30;;;14.10;50.30;;;;;;4998480;28;20084;-83
2022/03/29 00:03:45;;;;;;;22.58;13.43;;;14.00;50.30;;;;;;4997988;28;20026;-85
2022/03/29 00:06:11;;;;;;;27.67;18.02;;;13.80;50.60;;;;;;4997500;28;20057;-82
2022/03/29 00:08:37;;;;;;;27.27;16.58;;;14.10;50.70;;;;;;5014686;28;20101;-83
2022/03/29 00:11:02;;;;;;;22.27;15.52;;;14.40;50.80;;;;;;4998272;28;20050;-83
2022/03/29 00:13:28;;;;;;;24.42;14.60;;;14.40;50.10;;;;;;4998401;28;20032;-85
2022/03/29 00:15:54;;;;;;;23.63;15.63;;;14.30;49.40;;;;;;4997971;28;20080;-81
2022/03/29 00:18:19;;;;;;;22.65;15.48;;;14.20;50.20;;;;;;5015302;28;20461;-81
2022/03/29 00:20:45;;;;;;;27.48;14.57;;;14.30;50.30;;;;;;5014686;28;20060;-81
2022/03/29 00:23:10;;;;;;;26.00;16.50;;;13.90;50.20;;;;;;4998610;28;20465;-81
2022/03/29 00:25:36;;;;;;;25.02;16.42;;;14.00;50.80;;;;;;4998066;28;20354;-80
2022/03/29 00:28:02;;;;;;;26.52;15.90;;;13.80;50.80;;;;;;5015056;28;20025;-82
2022/03/29 00:30:28;;;;;;;23.92;15.23;;;13.70;52.10;;;;;;4978643;28;20027;-80
2022/03/29 00:32:54;;;;;;;26.60;15.85;;;13.50;51.30;;;;;;4978206;28;20030;-79
2022/03/29 00:35:20;;;;;;;23.17;15.18;;;13.00;51.60;;;;;;4994424;28;20028;-80
2022/03/29 00:37:47;;;;;;;23.60;15.73;;;13.00;52.00;;;;;;5002396;28;20038;-80
2022/03/29 00:40:14;;;;;;;30.45;16.45;;;13.10;51.90;;;;;;4997467;28;20018;-84
2022/03/29 00:42:40;;;;;;;27.00;18.15;;;13.30;52.20;;;;;;4998044;28;20022;-84
2022/03/29 00:45:06;;;;;;;26.08;15.63;;;13.60;52.10;;;;;;5014976;28;20104;-85
2022/03/29 00:47:32;;;;;;;26.92;15.77;;;13.50;51.00;;;;;;5014802;28;20025;-78
2022/03/29 00:49:58;;;;;;;25.33;16.27;;;13.50;51.20;;;;;;4989758;28;20030;-81
2022/03/29 00:52:24;;;;;;;25.48;17.15;;;13.80;50.90;;;;;;5014456;28;20072;-84
2022/03/29 00:54:50;;;;;;;26.83;16.88;;;14.00;50.90;;;;;;4997230;28;20018;-83
2022/03/29 00:57:16;;;;;;;25.58;15.82;;;13.70;52.90;;;;;;5014873;28;20025;-84
2022/03/29 00:59:44;;;;;;;24.38;15.68;;;13.80;52.70;;;;;;5014723;28;20030;-81
2022/03/29 01:02:10;;;;;;;24.75;15.40;;;13.60;50.80;;;;;;4996292;28;20045;-80
2022/03/29 01:04:36;;;;;;;25.63;15.98;;;13.30;50.70;;;;;;4996040;28;20021;-84
2022/03/29 01:07:02;;;;;;;28.90;16.33;;;13.50;51.30;;;;;;5014081;28;20466;-81
2022/03/29 01:09:30;;;;;;;25.52;16.25;;;13.20;51.00;;;;;;5014666;28;20112;-80
2022/03/29 01:11:57;;;;;;;27.08;16.15;;;13.50;51.20;;;;;;4994395;28;20126;-84
2022/03/29 01:14:26;;;;;;;29.50;16.42;;;13.00;51.40;;;;;;4991404;28;20022;-85
2022/03/29 01:19:38;;;;;;;26.50;16.70;;;12.30;52.80;;;;;;5014781;28;20115;-80
2022/03/29 01:22:09;;;;;;;28.70;18.77;;;12.80;52.90;;;;;;5014432;28;20026;-81
2022/03/29 01:24:41;;;;;;;27.10;16.40;;;12.90;52.90;;;;;;4993339;28;20439;-84
2022/03/29 01:27:07;;;;;;;24.63;16.40;;;13.40;52.80;;;;;;4986103;28;20404;-84
2022/03/29 01:29:34;;;;;;;24.35;16.10;;;13.40;52.10;;;;;;4977311;28;20114;-82
2022/03/29 01:32:06;;;;;;;31.88;16.55;;;13.60;52.30;;;;;;4994870;28;20049;-84
2022/03/29 01:34:34;;;;;;;23.17;15.02;;;13.90;52.00;;;;;;4988826;28;20022;-80
2022/03/29 01:37:00;;;;;;;23.80;15.27;;;14.00;51.90;;;;;;4980613;28;20068;-80
2022/03/29 01:39:25;;;;;;;25.33;15.73;;;14.20;51.10;;;;;;4996570;28;20025;-81
2022/03/29 01:41:51;;;;;;;30.55;16.90;;;14.40;50.40;;;;;;5013861;28;20035;-82
2022/03/29 01:44:17;;;;;;;28.05;16.77;;;14.00;49.30;;;;;;5003048;28;20084;-83
2022/03/29 01:46:42;;;;;;;31.08;15.93;;;13.40;50.70;;;;;;4996054;28;20025;-84
2022/03/29 01:49:10;;;;;;;25.55;16.13;;;13.30;51.00;;;;;;5013751;28;20037;-80
2022/03/29 01:51:36;;;;;;;26.10;16.52;;;12.90;51.80;;;;;;4996173;28;20452;-84
2022/03/29 01:54:03;;;;;;;26.90;16.35;;;12.20;52.70;;;;;;5013987;28;20476;-84
2022/03/29 01:56:31;;;;;;;26.38;15.90;;;12.30;53.40;;;;;;4996357;28;20052;-80
2022/03/29 01:58:57;;;;;;;29.38;17.02;;;12.50;53.40;;;;;;4996515;28;20110;-83
2022/03/29 02:01:23;;;;;;;24.92;15.98;;;12.90;52.80;;;;;;5013526;28;20392;-83
2022/03/29 02:03:48;;;;;;;28.23;16.23;;;12.90;51.70;;;;;;5013549;28;20476;-82
2022/03/29 02:06:14;;;;;;;29.70;16.85;;;13.10;52.00;;;;;;5013505;28;20025;-81
2022/03/29 02:08:41;;;;;;;26.42;16.17;;;13.20;52.10;;;;;;4993693;28;20025;-80
2022/03/29 02:11:07;;;;;;;24.08;15.40;;;13.40;51.70;;;;;;4991055;28;20034;-80
2022/03/29 02:13:33;;;;;;;26.75;16.50;;;13.50;51.90;;;;;;5004565;28;20050;-83
2022/03/29 02:15:59;;;;;;;28.08;16.42;;;13.80;50.80;;;;;;5013375;28;20025;-79
2022/03/29 02:18:25;;;;;;;30.98;17.23;;;13.90;49.80;;;;;;5013793;28;20020;-80
2022/03/29 02:20:52;;;;;;;26.25;16.52;;;13.70;50.20;;;;;;4995873;28;20053;-79
2022/03/29 02:23:17;;;;;;;31.77;16.08;;;13.80;50.70;;;;;;4996015;28;20117;-81
2022/03/29 02:25:49;;;;;;;25.55;16.05;;;13.70;50.30;;;;;;4983752;28;20108;-82
2022/03/29 02:28:15;;;;;;;25.10;16.23;;;13.40;50.30;;;;;;4996336;28;20026;-81
2022/03/29 02:30:41;;;;;;;27.02;15.98;;;13.00;51.10;;;;;;4995982;28;20038;-82
2022/03/29 02:33:07;;;;;;;28.42;18.13;;;13.00;51.00;;;;;;4995340;28;20022;-80
2022/03/29 02:35:33;;;;;;;27.83;16.55;;;12.60;52.00;;;;;;4995403;28;20030;-80
2022/03/29 02:37:59;;;;;;;26.23;16.73;;;12.90;52.00;;;;;;4989688;28;20057;-80
2022/03/29 02:40:25;;;;;;;27.05;16.40;;;13.20;51.80;;;;;;4986405;28;20124;-81
2022/03/29 02:42:52;;;;;;;28.10;16.08;;;13.20;52.50;;;;;;4996001;28;20018;-80
2022/03/29 02:45:20;;;;;;;24.80;16.58;;;13.30;52.30;;;;;;4985620;28;20025;-82
2022/03/29 02:47:49;;;;;;;28.33;16.75;;;13.60;51.50;;;;;;5013668;28;20018;-83
2022/03/29 02:50:16;;;;;;;26.00;15.70;;;13.90;50.30;;;;;;4987358;28;20473;-83
2022/03/29 02:52:54;;;;;;;26.08;15.23;;;13.90;51.00;;;;;;4988704;28;20349;-80
2022/03/29 02:55:22;;;;;;;23.02;14.80;;;13.40;50.20;;;;;;4996171;28;20065;-83
2022/03/29 02:57:48;;;;;;;27.73;15.68;;;13.30;51.10;;;;;;5012125;28;20033;-80
2022/03/29 03:00:16;;;;;;;24.98;15.73;;;13.50;52.00;;;;;;4995749;28;20138;-83
2022/03/29 03:02:46;;;;;;;23.83;14.43;;;13.70;51.20;;;;;;5013125;28;20021;-84
2022/03/29 03:05:12;;;;;;;25.50;15.15;;;13.90;51.00;;;;;;4995101;28;20030;-84
2022/03/29 03:07:39;;;;;;;27.02;14.93;;;13.70;50.20;;;;;;5012987;28;20416;-84
2022/03/29 03:10:06;;;;;;;23.65;15.25;;;13.40;50.80;;;;;;4995603;28;20068;-82
2022/03/29 03:12:36;;;;;;;33.25;16.90;;;13.70;51.20;;;;;;4995130;28;20026;-84
2022/03/29 03:15:03;;;;;;;23.35;15.70;;;13.90;51.00;;;;;;4995541;28;20116;-83
2022/03/29 03:17:29;;;;;;;27.70;16.00;;;14.00;51.30;;;;;;4982729;28;20384;-81
2022/03/29 03:19:55;;;;;;;27.05;15.50;;;13.40;51.60;;;;;;4994417;28;20069;-84
2022/03/29 03:22:20;;;;;;;25.10;15.20;;;12.90;52.60;;;;;;5013434;28;20025;-80
2022/03/29 03:24:46;;;;;;;25.55;16.17;;;12.60;53.40;;;;;;5013247;28;20045;-84
2022/03/29 03:27:12;;;;;;;28.38;16.80;;;12.20;53.80;;;;;;5013104;28;20029;-83
2022/03/29 03:29:37;;;;;;;29.23;16.13;;;12.00;54.40;;;;;;5015680;28;20026;-80
2022/03/29 03:32:04;;;;;;;26.27;15.93;;;12.40;54.50;;;;;;5016824;28;20105;-79
2022/03/29 03:34:29;;;;;;;26.02;15.80;;;12.80;54.40;;;;;;4998126;28;20025;-81
2022/03/29 03:36:56;;;;;;;27.92;16.95;;;12.80;54.90;;;;;;5016281;28;20022;-81
2022/03/29 03:39:22;;;;;;;27.15;15.20;;;12.80;54.50;;;;;;4998615;28;20028;-83
2022/03/29 03:41:49;;;;;;;30.02;16.00;;;12.20;52.70;;;;;;5016695;28;20021;-80
2022/03/29 03:44:15;;;;;;;27.55;16.70;;;11.90;53.80;;;;;;4979837;28;20462;-84
2022/03/29 03:46:40;;;;;;;29.02;16.95;;;12.30;53.70;;;;;;4984406;28;20564;-81
2022/03/29 03:49:06;;;;;;;28.73;17.35;;;12.70;53.30;;;;;;4988989;28;20028;-83
2022/03/29 03:51:33;;;;;;;27.33;15.73;;;12.50;53.30;;;;;;5009702;28;20112;-80
2022/03/29 03:53:59;;;;;;;24.27;15.48;;;12.60;53.30;;;;;;5015619;28;20025;-81
2022/03/29 03:56:24;;;;;;;28.65;16.95;;;12.60;53.90;;;;;;4998759;28;20453;-81
2022/03/29 03:58:50;;;;;;;28.73;16.58;;;12.50;54.70;;;;;;4992033;28;20014;-81
2022/03/29 04:01:16;;;;;;;37.92;16.73;;;12.70;54.90;;;;;;5014395;28;20049;-82
2022/03/29 04:03:41;;;;;;;27.58;15.75;;;12.90;54.20;;;;;;4998473;28;20018;-83
2022/03/29 04:06:07;;;;;;;28.33;15.88;;;12.80;53.10;;;;;;4988663;28;20034;-80
2022/03/29 04:08:33;;;;;;;28.33;16.83;;;13.10;52.70;;;;;;4992538;28;20018;-84
2022/03/29 04:10:59;;;;;;;29.35;16.50;;;13.30;52.40;;;;;;5014653;28;20034;-84
2022/03/29 04:13:25;;;;;;;25.40;15.98;;;13.40;52.00;;;;;;5014692;28;20025;-80
2022/03/29 04:15:50;;;;;;;28.48;16.15;;;13.10;52.00;;;;;;4993142;28;20018;-83
2022/03/29 04:18:16;;;;;;;28.10;17.02;;;12.80;52.20;;;;;;5014583;28;20503;-79
2022/03/29 04:20:42;;;;;;;28.67;16.98;;;12.40;52.90;;;;;;5014978;28;20014;-81
2022/03/29 04:23:08;;;;;;;32.45;17.98;;;12.00;54.00;;;;;;4997888;28;20033;-85
2022/03/29 04:25:35;;;;;;;29.63;17.30;;;12.00;55.40;;;;;;4998000;28;20013;-80
2022/03/29 04:28:00;;;;;;;33.67;18.92;;;12.10;55.70;;;;;;4997204;28;20025;-78
2022/03/29 04:30:27;;;;;;;33.20;18.77;;;12.00;55.20;;;;;;4997500;28;20076;-79
2022/03/29 04:32:55;;;;;;;28.25;17.42;;;11.80;55.20;;;;;;4997692;28;20101;-81
2022/03/29 04:35:21;;;;;;;32.85;17.52;;;12.10;55.30;;;;;;5014827;28;20013;-79
2022/03/29 04:37:47;;;;;;;36.60;18.70;;;12.40;55.00;;;;;;5014774;28;20036;-80
2022/03/29 04:40:13;;;;;;;37.22;18.75;;;12.10;54.10;;;;;;4996415;28;20029;-83
2022/03/29 04:42:50;;;;;;;33.63;17.60;;;12.00;55.30;;;;;;4998006;28;20061;-82
2022/03/29 04:45:17;;;;;;;32.85;18.10;;;12.40;54.10;;;;;;5015302;28;20018;-80
2022/03/29 04:47:44;;;;;;;47.28;26.10;;;12.50;54.20;;;;;;5006571;28;20057;-80
2022/03/29 04:50:12;;;;;;;42.15;24.25;;;12.80;54.00;;;;;;4994538;28;20029;-81
2022/03/29 04:52:39;;;;;;;32.08;17.50;;;12.90;53.50;;;;;;5015836;28;20101;-80
2022/03/29 04:55:06;;;;;;;28.38;16.90;;;12.30;52.90;;;;;;5014149;28;20029;-84
2022/03/29 04:57:32;;;;;;;31.65;17.92;;;12.00;53.60;;;;;;5023406;28;20018;-80
2022/03/29 04:59:58;;;;;;;32.35;18.25;;;12.20;54.20;;;;;;5012826;28;20489;-83
2022/03/29 05:02:24;;;;;;;33.10;18.42;;;11.90;54.20;;;;;;4982549;28;20029;-81
2022/03/29 05:04:51;;;;;;;34.97;20.20;;;12.10;54.80;;;;;;4998041;28;20449;-80
2022/03/29 05:07:17;;;;;;;31.88;18.77;;;12.10;54.80;;;;;;5014370;28;20022;-82
2022/03/29 05:09:42;;;;;;;33.97;17.95;;;11.70;54.50;;;;;;5014291;28;20024;-83
2022/03/29 05:12:08;;;;;;;31.08;16.85;;;11.80;54.90;;;;;;5014652;28;20034;-82
2022/03/29 05:14:34;;;;;;;31.00;17.30;;;11.30;55.60;;;;;;4996225;28;20018;-82
2022/03/29 05:17:00;;;;;;;32.08;16.42;;;11.10;55.70;;;;;;4996427;28;20345;-82
2022/03/29 05:19:26;;;;;;;32.00;17.15;;;11.00;56.20;;;;;;4997035;28;20445;-84
2022/03/29 05:21:52;;;;;;;33.30;18.90;;;11.30;56.10;;;;;;5014262;28;20037;-80
2022/03/29 05:24:18;;;;;;;30.92;18.55;;;11.90;55.50;;;;;;5014876;28;20449;-81
2022/03/29 05:26:44;;;;;;;31.27;19.17;;;12.30;55.10;;;;;;5014573;28;20033;-81
2022/03/29 05:29:11;;;;;;;34.80;18.38;;;12.70;54.20;;;;;;4997235;28;20018;-84
2022/03/29 05:31:37;;;;;;;28.60;17.17;;;12.80;53.90;;;;;;4996602;28;20473;-84
2022/03/29 05:34:03;;;;;;;32.63;19.65;;;12.60;53.50;;;;;;5014082;28;20433;-81
2022/03/29 05:36:29;;;;;;;30.85;18.38;;;12.40;54.40;;;;;;4996328;28;20532;-82
2022/03/29 05:38:55;;;;;;;37.33;18.58;;;12.60;54.70;;;;;;4996321;28;20064;-83
2022/03/29 05:41:21;;;;;;;31.75;18.50;;;12.90;54.70;;;;;;4996382;28;20022;-83
2022/03/29 05:43:48;;;;;;;32.13;19.35;;;13.00;54.40;;;;;;5014112;28;20010;-83
2022/03/29 05:49:00;;;;;;;38.53;21.40;;;13.80;53.80;;;;;;5014545;28;20045;-81
2022/03/29 05:51:28;;;;;;;35.50;21.92;;;14.10;54.00;;;;;;5012943;28;20461;-84
2022/03/29 05:53:55;;;;;;;35.08;22.17;;;14.50;53.40;;;;;;4996772;28;20026;-84
2022/03/29 05:56:22;;;;;;;35.10;20.52;;;14.90;52.90;;;;;;4996371;28;20056;-82
2022/03/29 05:58:48;;;;;;;34.83;20.55;;;15.20;52.60;;;;;;4995846;28;20035;-83
2022/03/29 06:01:15;;;;;;;32.38;20.05;;;15.60;52.30;;;;;;4996757;28;20046;-82
2022/03/29 06:03:40;;;;;;;32.80;21.52;;;15.90;51.50;;;;;;4996183;28;20022;-84
2022/03/29 06:06:06;;;;;;;36.75;24.70;;;16.30;50.80;;;;;;4996341;28;20500;-83
2022/03/29 06:08:32;;;;;;;44.55;25.13;;;16.50;50.60;;;;;;5013802;28;20033;-85
2022/03/29 06:10:58;;;;;;;34.92;23.38;;;16.70;50.40;;;;;;4996192;28;20496;-81
2022/03/29 06:13:25;;;;;;;35.97;22.58;;;16.50;50.40;;;;;;4996304;28;20018;-84
2022/03/29 06:15:53;;;;;;;34.55;22.70;;;16.50;51.00;;;;;;4996437;28;20033;-81
2022/03/29 06:18:20;;;;;;;34.97;21.52;;;16.60;50.50;;;;;;4996159;28;20029;-85
2022/03/29 06:20:46;;;;;;;33.28;22.00;;;16.80;50.80;;;;;;4996314;28;20029;-85
2022/03/29 06:23:11;;;;;;;33.05;21.23;;;16.90;50.10;;;;;;4996299;28;20045;-81
2022/03/29 06:25:37;;;;;;;30.35;21.15;;;17.10;49.80;;;;;;4995991;28;20053;-81
2022/03/29 06:28:03;;;;;;;34.30;22.48;;;17.30;49.40;;;;;;5013452;28;20164;-85
2022/03/29 06:30:29;;;;;;;35.20;21.65;;;17.50;49.40;;;;;;4995756;28;20109;-82
2022/03/29 06:32:54;;;;;;;34.05;20.67;;;17.70;49.50;;;;;;5013326;28;20472;-83
2022/03/29 06:35:22;;;;;;;34.22;21.58;;;17.90;49.10;;;;;;4996029;28;20110;-85
2022/03/29 06:37:50;;;;;;;38.30;21.38;;;18.10;48.90;;;;;;5013421;28;20030;-84
2022/03/29 06:40:15;;;;;;;30.83;20.90;;;18.20;48.40;;;;;;4996074;28;20026;-82
2022/03/29 06:42:41;;;;;;;27.77;19.23;;;18.40;48.00;;;;;;4996079;28;20049;-85
2022/03/29 06:45:08;;;;;;;29.52;20.02;;;18.40;47.50;;;;;;4995543;28;20464;-82
2022/03/29 06:47:34;;;;;;;36.40;20.95;;;18.10;47.50;;;;;;4996207;28;20461;-85
2022/03/29 06:50:00;;;;;;;34.75;20.77;;;18.00;48.00;;;;;;5013392;28;20073;-85
2022/03/29 06:52:28;;;;;;;38.42;22.25;;;18.00;48.00;;;;;;4995699;28;20041;-82
2022/03/29 06:54:54;;;;;;;36.45;21.75;;;18.30;48.10;;;;;;4996162;28;20018;-86
2022/03/29 06:57:20;;;;;;;32.85;22.23;;;18.60;47.40;;;;;;5013193;28;20081;-81
2022/03/29 06:59:46;;;;;;;34.22;22.40;;;18.90;47.20;;;;;;5012657;28;20108;-82
2022/03/29 07:02:13;;;;;;;34.10;20.65;;;19.20;47.20;;;;;;4995694;28;20543;-81
2022/03/29 07:04:39;;;;;;;32.80;21.05;;;19.30;46.70;;;;;;4998751;28;20022;-81
2022/03/29 07:07:04;;;;;;;28.35;20.13;;;19.00;47.70;;;;;;5016699;28;20044;-86
2022/03/29 07:12:14;;;;;;;31.17;21.05;;;19.80;47.10;;;;;;5017103;28;20045;-86
2022/03/29 07:14:40;;;;;;;32.78;20.05;;;19.40;47.00;;;;;;4999617;28;20022;-82
2022/03/29 07:17:10;;;;;;;29.10;21.02;;;19.60;47.40;;;;;;5017014;28;20460;-81
2022/03/29 07:19:36;;;;;;;31.10;20.40;;;19.20;47.10;;;;;;4999442;28;20026;-81
2022/03/29 07:22:02;;;;;;;38.40;21.33;;;19.50;47.20;;;;;;4999116;28;20029;-86
2022/03/29 07:24:27;;;;;;;27.20;20.73;;;19.90;47.00;;;;;;4999273;28;20022;-86
2022/03/29 07:26:53;;;;;;;31.50;19.85;;;20.60;46.10;;;;;;5016813;28;20026;-84
2022/03/29 07:29:19;;;;;;;29.50;20.17;;;21.10;45.50;;;;;;4998973;28;20030;-82
2022/03/29 07:31:45;;;;;;;31.48;20.35;;;21.40;45.30;;;;;;5016656;28;20025;-84
2022/03/29 07:34:10;;;;;;;26.48;18.67;;;22.30;44.90;;;;;;4998735;28;20465;-82
2022/03/29 07:36:36;;;;;;;34.20;19.08;;;23.50;43.40;;;;;;4998762;28;20032;-84
2022/03/29 07:39:03;;;;;;;25.08;17.70;;;24.80;42.20;;;;;;5016764;28;20022;-87
2022/03/29 07:41:29;;;;;;;24.63;17.08;;;25.20;41.30;;;;;;4998686;28;20053;-87
2022/03/29 07:43:54;;;;;;;27.38;17.75;;;25.60;40.50;;;;;;4999137;28;20037;-83
2022/03/29 07:46:21;;;;;;;30.05;17.25;;;25.80;40.70;;;;;;4998590;28;20049;-85
2022/03/29 07:48:46;;;;;;;26.13;16.80;;;26.10;40.20;;;;;;4998702;28;20021;-85
2022/03/29 07:51:12;;;;;;;30.58;16.73;;;26.50;39.60;;;;;;4999085;28;20030;-80
2022/03/29 07:53:40;;;;;;;23.45;15.00;;;26.90;39.00;;;;;;4998548;28;20013;-81
2022/03/29 07:56:07;;;;;;;23.30;14.63;;;27.70;37.60;;;;;;4998670;28;20024;-86
2022/03/29 07:58:32;;;;;;;21.55;14.40;;;28.20;36.70;;;;;;4998322;28;20034;-85
2022/03/29 08:00:58;;;;;;;25.85;14.57;;;29.10;36.20;;;;;;5015942;28;20157;-84
2022/03/29 08:03:27;;;;;;;20.73;14.02;;;29.20;34.90;;;;;;4998809;28;20108;-86
2022/03/29 08:05:54;;;;;;;23.40;15.00;;;29.40;34.40;;;;;;4998461;28;20029;-84
2022/03/29 08:08:20;;;;;;;24.23;14.18;;;29.10;34.70;;;;;;4998284;28;20029;-80
2022/03/29 08:10:47;;;;;;;23.85;15.27;;;29.00;34.50;;;;;;4998623;28;20025;-87
2022/03/29 08:13:16;;;;;;;23.48;13.98;;;29.40;34.00;;;;;;4998206;28;20053;-80
2022/03/29 08:15:45;;;;;;;24.00;14.40;;;30.00;34.30;;;;;;4997977;28;20022;-87
2022/03/29 08:18:10;;;;;;;24.17;14.68;;;30.60;33.60;;;;;;4998307;28;20057;-89
2022/03/29 08:20:37;;;;;;;24.10;15.40;;;31.00;32.80;;;;;;4998466;28;20049;-83
2022/03/29 08:23:04;;;;;;;23.25;14.68;;;31.10;32.90;;;;;;4997912;28;20018;-83
2022/03/29 08:25:33;;;;;;;24.10;14.35;;;31.60;32.90;;;;;;4998191;28;20049;-89
2022/03/29 08:28:00;;;;;;;22.98;13.15;;;32.40;32.40;;;;;;4998165;28;20476;-90
2022/03/29 08:30:27;;;;;;;22.75;14.80;;;33.20;32.20;;;;;;4997744;28;20022;-85
2022/03/29 08:32:54;;;;;;;19.95;14.15;;;33.10;32.20;;;;;;4998236;28;20060;-89
2022/03/29 08:35:20;;;;;;;19.17;13.90;;;32.60;31.60;;;;;;5015445;28;20096;-88
2022/03/29 08:37:47;;;;;;;20.88;13.88;;;32.50;32.10;;;;;;5015258;28;20026;-87
2022/03/29 08:40:16;;;;;;;22.27;14.25;;;32.50;32.40;;;;;;4997829;28;20021;-82
2022/03/29 08:42:44;;;;;;;26.38;14.50;;;32.50;32.00;;;;;;4997674;28;20014;-87
2022/03/29 08:45:17;;;;;;;21.38;14.00;;;32.80;32.50;;;;;;4997368;28;20033;-88
2022/03/29 08:47:45;;;;;;;19.40;13.93;;;33.30;32.40;;;;;;4997809;28;20064;-82
2022/03/29 08:50:14;;;;;;;20.17;13.50;;;33.50;32.30;;;;;;4997809;28;20429;-89
2022/03/29 08:52:40;;;;;;;20.75;13.73;;;33.30;32.00;;;;;;5014691;28;20113;-88
2022/03/29 08:55:08;;;;;;;19.80;13.88;;;33.40;31.60;;;;;;4997820;28;20022;-90
2022/03/29 08:57:34;;;;;;;21.55;13.32;;;32.80;31.40;;;;;;4997292;28;20032;-84
2022/03/29 09:00:00;;;;;;;24.58;14.63;;;32.90;32.00;;;;;;5014552;28;20049;-87
2022/03/29 09:02:31;;;;;;;21.33;14.30;;;33.10;31.90;;;;;;5015012;28;20026;-86
2022/03/29 09:05:15;;;;;;;21.67;14.20;;;33.30;31.60;;;;;;4997407;28;20029;-89
2022/03/29 09:08:03;;;;;;;21.38;14.63;;;33.30;32.10;;;;;;4997185;28;20169;-91
2022/03/29 09:10:43;;;;;;;29.13;14.82;;;33.10;31.60;;;;;;4997033;28;20021;-91
2022/03/29 09:14:04;;;;;;;24.83;14.98;;;33.10;31.10;;;;;;5085187;27;1366722;-82
2022/03/29 09:16:34;;;;;;;22.15;14.82;;;33.40;32.00;;;;;;5093112;28;20032;-85
2022/03/29 09:19:00;;;;;;;22.88;15.10;;;34.10;31.40;;;;;;5093568;28;20044;-89
2022/03/29 09:21:27;;;;;;;22.60;14.63;;;34.00;31.50;;;;;;5076382;28;20100;-82
2022/03/29 09:24:08;;;;;;;24.67;14.70;;;33.90;31.20;;;;;;5093110;28;20118;-87
2022/03/29 09:26:38;;;;;;;27.02;14.68;;;34.40;31.50;;;;;;5093178;28;20070;-90
2022/03/29 09:29:12;;;;;;;20.33;13.88;;;35.10;32.00;;;;;;5092792;28;20016;-82
2022/03/29 09:31:39;;;;;;;22.42;14.00;;;35.50;30.90;;;;;;5093109;28;20016;-87
2022/03/29 09:34:17;;;;;;;19.15;13.68;;;35.70;31.00;;;;;;5110836;28;20107;-87
2022/03/29 09:36:48;;;;;;;23.33;14.10;;;36.10;30.70;;;;;;5092737;28;20008;-81
2022/03/29 09:39:50;;;;;;;18.13;13.27;;;36.60;30.80;;;;;;5092977;28;20485;-91
2022/03/29 09:42:19;;;;;;;19.77;13.27;;;36.50;30.60;;;;;;5008905;28;20034;-83
2022/03/29 09:44:46;;;;;;;22.58;13.70;;;36.10;30.80;;;;;;5009035;28;20030;-84
2022/03/29 09:47:15;;;;;;;23.38;13.32;;;36.30;30.60;;;;;;5008642;28;20043;-79
2022/03/29 09:49:55;;;;;;;17.75;12.70;;;36.80;31.50;;;;;;5008586;28;20022;-78
2022/03/29 09:52:31;;;;;;;;;;;36.80;30.10;;;;;;5008905;28;20030;-80
2022/03/29 09:55:06;;;;;;;16.73;11.90;;;36.50;30.10;;;;;;4992399;28;19909;-86
2022/03/29 09:57:39;;;;;;;18.50;11.27;;;35.40;30.50;;;;;;5008571;28;20481;-81
2022/03/29 10:00:09;;;;;;;21.65;11.63;;;35.10;30.80;;;;;;4989001;28;20085;-86
2022/03/29 10:02:44;;;;;;;21.50;12.27;;;34.60;31.00;;;;;;4988935;28;20023;-86
2022/03/29 10:05:11;;;;;;;21.27;13.43;;;34.60;30.70;;;;;;4988828;28;20026;-86
2022/03/29 10:10:47;;;;;;;21.70;12.40;;;34.50;31.40;;;;;;4988920;28;20161;-90
2022/03/29 10:13:14;;;;;;;25.58;13.00;;;34.90;31.40;;;;;;4988397;28;20055;-91
2022/03/29 10:15:41;;;;;;;21.77;13.75;;;36.10;30.60;;;;;;4999765;28;20417;-79
2022/03/29 10:18:07;;;;;;;23.35;13.30;;;36.30;30.50;;;;;;5072209;28;20427;-84
2022/03/29 10:20:34;;;;;;;24.50;13.52;;;36.30;30.10;;;;;;5071889;28;20028;-89
2022/03/29 10:23:00;;;;;;;18.50;13.63;;;35.20;30.30;;;;;;5088956;28;20024;-82
2022/03/29 10:25:27;;;;;;;26.77;13.77;;;34.80;30.20;;;;;;5076064;28;20044;-88
2022/03/29 10:27:58;;;;;;;19.58;13.05;;;34.30;30.90;;;;;;5058547;28;20413;-85
2022/03/29 10:30:32;;;;;;;21.55;13.70;;;34.40;30.90;;;;;;5058105;28;20505;-86
2022/03/29 10:33:25;;;;;;;28.30;14.75;;;32.80;30.80;;;;;;5058321;28;20459;-87
2022/03/29 10:36:11;;;;;;;24.17;13.38;;;32.10;30.60;;;;;;5058637;28;20119;-82
2022/03/29 10:38:50;;;;;;;21.13;14.60;;;31.60;31.30;;;;;;5058268;28;20031;-90
2022/03/29 10:41:28;;;;;;;17.90;13.63;;;31.60;31.60;;;;;;5075199;28;20390;-82
2022/03/29 10:44:05;;;;;;;23.73;13.50;;;31.70;30.90;;;;;;5076038;28;20052;-90
2022/03/29 10:46:42;;;;;;;23.63;14.82;;;31.70;31.00;;;;;;5056294;28;20077;-83
2022/03/29 10:49:23;;;;;;;28.77;15.55;;;32.20;30.80;;;;;;5057898;28;20489;-88
2022/03/29 10:51:54;;;;;;;23.75;15.20;;;32.70;31.10;;;;;;5074654;28;20056;-87
2022/03/29 10:54:37;;;;;;;25.75;15.10;;;33.20;30.70;;;;;;5075829;28;20047;-91
2022/03/29 10:57:03;;;;;;;22.90;14.48;;;33.60;30.60;;;;;;5075593;28;20016;-93
2022/03/29 10:59:30;;;;;;;25.80;15.43;;;34.00;30.30;;;;;;5074333;28;20060;-87
2022/03/29 11:02:09;;;;;;;22.98;14.50;;;34.00;30.00;;;;;;5057634;28;20021;-91
2022/03/29 11:04:36;;;;;;;24.35;15.07;;;34.00;30.70;;;;;;5074801;28;20029;-89
2022/03/29 11:07:10;;;;;;;25.05;15.05;;;33.70;30.00;;;;;;5075872;28;20077;-88
2022/03/29 11:09:37;;;;;;;23.00;14.57;;;32.30;30.50;;;;;;5076096;28;20071;-88
2022/03/29 11:12:04;;;;;;;22.70;14.48;;;31.70;30.40;;;;;;5075584;28;20073;-87
2022/03/29 11:14:34;;;;;;;21.10;14.18;;;30.70;30.50;;;;;;5075131;28;20036;-85
2022/03/29 11:17:09;;;;;;;24.55;14.93;;;29.70;31.70;;;;;;5075793;28;20107;-83
2022/03/29 11:19:39;;;;;;;24.42;15.05;;;29.30;31.60;;;;;;5074121;28;20077;-91
2022/03/29 11:22:29;;;;;;;26.27;15.55;;;29.30;31.40;;;;;;5057667;28;20056;-90
2022/03/29 11:24:58;;;;;;;24.15;15.02;;;29.50;31.70;;;;;;5074425;28;20479;-87
2022/03/29 11:27:28;;;;;;;23.55;15.90;;;29.70;32.00;;;;;;5075619;28;20109;-91
2022/03/29 11:29:55;;;;;;;24.63;15.57;;;29.60;31.30;;;;;;5057806;28;20028;-82
2022/03/29 11:32:22;;;;;;;29.27;16.13;;;29.00;31.30;;;;;;5075989;28;20036;-82
2022/03/29 11:34:53;;;;;;;25.23;15.68;;;29.10;32.10;;;;;;5074703;28;20081;-90
2022/03/29 11:37:54;;;;;;;24.88;15.95;;;29.20;31.70;;;;;;5057134;28;20021;-83
2022/03/29 11:40:20;;;;;;;27.45;17.15;;;28.30;32.30;;;;;;5013270;28;20026;-82
2022/03/29 11:42:51;;;;;;;25.30;15.88;;;27.90;32.70;;;;;;5013392;28;20030;-90
2022/03/29 11:45:21;;;;;;;26.27;16.42;;;28.40;33.40;;;;;;5013151;28;20022;-86
2022/03/29 11:47:55;;;;;;;41.03;16.90;;;28.80;33.00;;;;;;5013594;28;20034;-92
2022/03/29 11:50:30;;;;;;;35.45;17.00;;;28.90;32.00;;;;;;5012929;28;20022;-91
2022/03/29 11:52:56;;;;;;;26.35;16.08;;;28.50;31.60;;;;;;5013043;28;20092;-89
2022/03/29 11:55:22;;;;;;;21.02;15.27;;;28.40;32.30;;;;;;5013003;28;20120;-90
2022/03/29 11:57:48;;;;;;;29.73;15.43;;;28.00;32.40;;;;;;5013014;28;20145;-88
2022/03/29 12:00:25;;;;;;;26.27;14.63;;;28.00;32.20;;;;;;5013709;28;20026;-90
2022/03/29 12:02:52;;;;;;;25.17;14.55;;;28.10;32.00;;;;;;5013111;28;20389;-92
2022/03/29 12:05:26;;;;;;;22.65;14.82;;;28.10;32.70;;;;;;5012999;28;20034;-92
2022/03/29 12:07:57;;;;;;;25.90;15.10;;;28.30;32.30;;;;;;5012982;28;20080;-91
2022/03/29 12:10:36;;;;;;;27.05;14.35;;;28.40;32.30;;;;;;5012797;28;20109;-86
2022/03/29 12:13:03;;;;;;;21.40;13.30;;;28.20;31.40;;;;;;5012612;28;20045;-92
2022/03/29 12:15:29;;;;;;;21.92;14.50;;;28.00;31.40;;;;;;5073143;28;20471;-93
2022/03/29 12:20:43;;;;;;;22.35;13.07;;;27.70;32.10;;;;;;5074543;28;20027;-92
2022/03/29 12:23:27;;;;;;;20.98;13.38;;;28.20;32.00;;;;;;5055933;28;20044;-87
2022/03/29 12:25:55;;;;;;;25.25;14.00;;;28.30;31.90;;;;;;5056530;28;20074;-92
2022/03/29 12:28:22;;;;;;;20.90;14.50;;;28.20;31.70;;;;;;5056326;28;20025;-86
2022/03/29 12:30:49;;;;;;;26.20;14.00;;;28.10;31.90;;;;;;5056429;28;20138;-91
2022/03/29 12:33:15;;;;;;;20.88;13.07;;;27.90;31.90;;;;;;5056355;28;20040;-81
2022/03/29 12:35:41;;;;;;;25.27;13.52;;;28.20;31.70;;;;;;5073976;28;20031;-85
2022/03/29 12:38:11;;;;;;;21.05;13.57;;;28.40;31.30;;;;;;5055852;28;20032;-80
2022/03/29 12:40:37;;;;;;;20.52;12.30;;;28.10;31.50;;;;;;5055531;28;20356;-82
2022/03/29 12:43:06;;;;;;;20.38;12.70;;;28.00;32.60;;;;;;5074103;28;20041;-92
2022/03/29 12:45:33;;;;;;;20.52;12.68;;;28.10;31.80;;;;;;5074053;28;20476;-93
2022/03/29 12:48:02;;;;;;;19.70;12.35;;;28.10;31.90;;;;;;5055675;28;20050;-90